createdAt,value
2018-04-01T00:00:24.250Z,2.2
2018-04-01T00:03:24.260Z,2.2
2018-04-01T00:06:24.237Z,2.1
2018-04-01T00:09:24.283Z,3.1
2018-04-01T00:12:24.275Z,2.3
2018-04-01T00:15:24.976Z,2.2
2018-04-01T00:18:24.244Z,2.2
2018-04-01T00:21:24.225Z,2.2
2018-04-01T00:24:24.290Z,2.2
2018-04-01T00:27:24.234Z,2.1
2018-04-01T00:30:24.253Z,2.6
2018-04-01T00:33:24.259Z,2.2
2018-04-01T00:36:24.224Z,2.3
2018-04-01T00:39:24.256Z,3.3
2018-04-01T00:42:24.217Z,2.2
2018-04-01T00:45:24.230Z,2.3
2018-04-01T00:48:24.221Z,2.2
2018-04-01T00:51:24.291Z,2.5
2018-04-01T00:54:24.213Z,2.2
2018-04-01T00:57:24.214Z,2.2
2018-04-01T01:00:24.243Z,2.4
2018-04-01T01:03:24.221Z,2.2
2018-04-01T01:06:24.220Z,2.2
2018-04-01T01:09:24.253Z,2.1
2018-04-01T01:12:24.221Z,2.3
2018-04-01T01:15:24.266Z,3
2018-04-01T01:18:24.202Z,2.3
2018-04-01T01:21:24.227Z,2.2
2018-04-01T01:24:24.219Z,2.2
2018-04-01T01:27:24.227Z,2.2
2018-04-01T01:30:24.260Z,2.1
2018-04-01T01:33:24.241Z,2.1
2018-04-01T01:36:24.186Z,2.1
2018-04-01T01:39:24.190Z,2.3
2018-04-01T01:42:24.201Z,2.1
2018-04-01T01:45:24.214Z,2.1
2018-04-01T01:48:24.309Z,2.2
2018-04-01T01:51:24.238Z,2
2018-04-01T01:54:24.284Z,2.1
2018-04-01T01:57:24.248Z,2.1
2018-04-01T02:00:24.242Z,2
2018-04-01T02:03:24.229Z,2.1
2018-04-01T02:06:24.242Z,2
2018-04-01T02:09:24.214Z,2.1
2018-04-01T02:12:24.282Z,2.2
2018-04-01T02:15:24.248Z,2.3
2018-04-01T02:18:24.213Z,2.1
2018-04-01T02:21:24.211Z,2.1
2018-04-01T02:24:24.209Z,2
2018-04-01T02:27:24.208Z,2
2018-04-01T02:30:24.220Z,2
2018-04-01T02:33:24.237Z,2.4
2018-04-01T02:36:24.274Z,2
2018-04-01T02:39:24.238Z,2
2018-04-01T02:42:24.236Z,1.9
2018-04-01T02:45:24.175Z,1.8
2018-04-01T02:48:24.218Z,1.9
2018-04-01T02:51:24.226Z,2
2018-04-01T02:54:24.195Z,1.9
2018-04-01T02:57:24.234Z,2.1
2018-04-01T03:00:24.197Z,1.8
2018-04-01T03:03:24.209Z,2.1
2018-04-01T03:06:24.186Z,1.7
2018-04-01T03:09:24.182Z,1.8
2018-04-01T03:12:24.190Z,2
2018-04-01T03:15:24.216Z,2.5
2018-04-01T03:18:24.196Z,1.8
2018-04-01T03:21:24.271Z,1.8
2018-04-01T03:24:24.186Z,1.7
2018-04-01T03:27:24.204Z,1.9
2018-04-01T03:30:24.236Z,1.9
2018-04-01T03:33:24.182Z,1.8
2018-04-01T03:36:24.190Z,1.8
2018-04-01T03:39:24.185Z,1.8
2018-04-01T03:42:24.194Z,1.9
2018-04-01T03:45:24.173Z,1.8
2018-04-01T03:48:24.163Z,1.8
2018-04-01T03:51:24.194Z,1.8
2018-04-01T03:54:24.292Z,1.8
2018-04-01T03:57:24.171Z,1.8
2018-04-01T04:00:24.590Z,1.9
2018-04-01T04:03:24.176Z,1.7
2018-04-01T04:06:24.163Z,1.8
2018-04-01T04:09:24.167Z,1.8
2018-04-01T04:12:24.239Z,2
2018-04-01T04:15:24.182Z,1.6
2018-04-01T04:18:24.183Z,1.7
2018-04-01T04:21:24.197Z,1.6
2018-04-01T04:24:24.172Z,1.6
2018-04-01T04:27:24.174Z,1.8
2018-04-01T04:30:24.135Z,1.8
2018-04-01T04:33:24.171Z,1.7
2018-04-01T04:36:24.141Z,1.6
2018-04-01T04:39:24.127Z,1.6
2018-04-01T04:42:24.165Z,1.6
2018-04-01T04:45:24.158Z,1.7
2018-04-01T04:48:24.154Z,1.5
2018-04-01T04:51:24.150Z,1.5
2018-04-01T04:54:24.239Z,1.6
2018-04-01T04:57:24.152Z,1.5
2018-04-01T05:00:24.157Z,1.6
2018-04-01T05:03:24.120Z,1.6
2018-04-01T05:06:24.153Z,1.6
2018-04-01T05:09:24.166Z,1.7
2018-04-01T05:12:24.149Z,1.5
2018-04-01T05:15:24.157Z,1.6
2018-04-01T05:18:24.153Z,1.6
2018-04-01T05:21:24.126Z,1.6
2018-04-01T05:24:24.135Z,1.6
2018-04-01T05:27:24.148Z,1.5
2018-04-01T05:30:24.154Z,1.6
2018-04-01T05:33:24.188Z,1.5
2018-04-01T05:36:24.149Z,1.6
2018-04-01T05:39:24.137Z,1.6
2018-04-01T05:42:24.124Z,1.5
2018-04-01T05:45:24.175Z,1.7
2018-04-01T05:48:24.135Z,1.6
2018-04-01T05:51:24.155Z,1.5
2018-04-01T05:54:24.131Z,1.6
2018-04-01T05:57:24.125Z,1.5
2018-04-01T06:00:24.127Z,1.6
2018-04-01T06:03:24.140Z,1.5
2018-04-01T06:06:24.250Z,1.5
2018-04-01T06:09:24.144Z,1.9
2018-04-01T06:12:24.120Z,1.5
2018-04-01T06:15:24.133Z,1.5
2018-04-01T06:18:24.139Z,1.5
2018-04-01T06:21:24.133Z,1.5
2018-04-01T06:24:24.116Z,1.6
2018-04-01T06:27:24.197Z,1.5
2018-04-01T06:30:24.173Z,1.4
2018-04-01T06:33:24.111Z,1.4
2018-04-01T06:36:24.103Z,1.5
2018-04-01T06:39:24.136Z,1.5
2018-04-01T06:42:24.156Z,1.5
2018-04-01T06:45:24.557Z,1.4
2018-04-01T06:48:24.116Z,1.4
2018-04-01T06:51:24.185Z,1.4
2018-04-01T06:54:24.118Z,1.4
2018-04-01T06:57:24.141Z,1.5
2018-04-01T07:00:24.144Z,1.7
2018-04-01T07:03:24.142Z,9.2
2018-04-01T07:06:24.189Z,8.8
2018-04-01T07:09:24.092Z,6.2
2018-04-01T07:12:24.117Z,4.2
2018-04-01T07:15:24.120Z,2.8
2018-04-01T07:18:24.121Z,3.2
2018-04-01T07:21:24.119Z,4.6
2018-04-01T07:24:24.157Z,2.7
2018-04-01T07:27:24.101Z,4.3
2018-04-01T07:30:24.152Z,2.5
2018-04-01T07:33:24.125Z,2
2018-04-01T07:36:24.126Z,2.2
2018-04-01T07:39:24.111Z,3.2
2018-04-01T07:42:24.539Z,5.7
2018-04-01T07:45:24.132Z,3.1
2018-04-01T07:48:24.141Z,1.7
2018-04-01T07:51:24.095Z,2.8
2018-04-01T07:54:24.120Z,7
2018-04-01T07:57:24.214Z,1.6
2018-04-01T08:00:24.172Z,3.1
2018-04-01T08:03:24.142Z,2.9
2018-04-01T08:06:24.119Z,4.6
2018-04-01T08:09:24.128Z,1.6
2018-04-01T08:12:24.124Z,3.5
2018-04-01T08:15:24.107Z,5.9
2018-04-01T08:18:24.086Z,2
2018-04-01T08:21:24.096Z,2.9
2018-04-01T08:24:24.058Z,3.2
2018-04-01T08:27:24.066Z,3.1
2018-04-01T08:30:24.089Z,2.6
2018-04-01T08:33:24.120Z,1.8
2018-04-01T08:36:24.130Z,3.1
2018-04-01T08:39:24.082Z,2.2
2018-04-01T08:42:24.096Z,2
2018-04-01T08:45:24.113Z,4
2018-04-01T08:48:24.124Z,2
2018-04-01T08:51:24.114Z,1.7
2018-04-01T08:54:24.124Z,1.6
2018-04-01T08:57:24.076Z,1.5
2018-04-01T09:00:24.102Z,1.7
2018-04-01T09:03:24.092Z,3.3
2018-04-01T09:06:24.103Z,3.9
2018-04-01T09:09:26.659Z,2.5
2018-04-01T09:12:24.153Z,3.2
2018-04-01T09:15:24.061Z,2.5
2018-04-01T09:18:24.085Z,4.1
2018-04-01T09:21:24.115Z,2.8
2018-04-01T09:24:24.078Z,2.8
2018-04-01T09:27:24.073Z,2.6
2018-04-01T09:30:24.058Z,1.8
2018-04-01T09:33:24.118Z,2.3
2018-04-01T09:36:24.089Z,1.8
2018-04-01T09:39:24.067Z,8.7
2018-04-01T09:42:24.087Z,6.1
2018-04-01T09:45:24.062Z,2.2
2018-04-01T09:48:24.074Z,7.9
2018-04-01T09:51:24.064Z,5.3
2018-04-01T09:54:25.758Z,9.8
2018-04-01T09:57:24.203Z,8.9
2018-04-01T10:00:24.055Z,9
2018-04-01T10:03:24.451Z,12.5
2018-04-01T10:06:24.081Z,8.3
2018-04-01T10:09:24.064Z,7.1
2018-04-01T10:12:24.076Z,2
2018-04-01T10:15:24.071Z,4.4
2018-04-01T10:18:24.076Z,2.4
2018-04-01T10:21:24.079Z,4.4
2018-04-01T10:24:24.047Z,2.7
2018-04-01T10:27:24.121Z,4.4
2018-04-01T10:30:24.073Z,6.8
2018-04-01T10:33:24.054Z,3.1
2018-04-01T10:36:24.057Z,4.6
2018-04-01T10:39:24.065Z,4.3
2018-04-01T10:42:24.066Z,7.6
2018-04-01T10:45:24.064Z,8.5
2018-04-01T10:48:24.173Z,5.8
2018-04-01T10:51:24.050Z,9
2018-04-01T10:54:24.048Z,7.7
2018-04-01T10:57:24.075Z,8.4
2018-04-01T11:00:24.045Z,4.7
2018-04-01T11:03:24.091Z,6.2
2018-04-01T11:06:24.096Z,5.2
2018-04-01T11:09:24.038Z,5.7
2018-04-01T11:12:24.025Z,6.6
2018-04-01T11:15:24.058Z,5.5
2018-04-01T11:18:24.081Z,4.7
2018-04-01T11:21:24.025Z,5
2018-04-01T11:24:24.060Z,5.7
2018-04-01T11:27:24.056Z,4.1
2018-04-01T11:30:24.050Z,4.3
2018-04-01T11:33:24.024Z,3.7
2018-04-01T11:36:24.125Z,6.5
2018-04-01T11:39:24.051Z,3.8
2018-04-01T11:42:24.022Z,4.1
2018-04-01T11:45:24.028Z,1.6
2018-04-01T11:48:24.041Z,2.5
2018-04-01T11:51:24.027Z,3.5
2018-04-01T11:54:24.001Z,2.4
2018-04-01T11:57:24.026Z,2.6
2018-04-01T12:00:24.042Z,2.8
2018-04-01T12:03:24.011Z,3.3
2018-04-01T12:06:24.057Z,3.1
2018-04-01T12:09:24.009Z,1.9
2018-04-01T12:12:24.029Z,1.5
2018-04-01T12:15:24.025Z,2.9
2018-04-01T12:18:24.021Z,3
2018-04-01T12:21:24.051Z,2.9
2018-04-01T12:24:24.024Z,1.8
2018-04-01T12:27:24.046Z,2.8
2018-04-01T12:30:24.005Z,2.6
2018-04-01T12:33:24.032Z,2.1
2018-04-01T12:36:24.032Z,2.3
2018-04-01T12:39:24.085Z,2.5
2018-04-01T12:42:24.057Z,2.3
2018-04-01T12:45:23.996Z,1.5
2018-04-01T12:48:24.038Z,3.2
2018-04-01T12:51:24.028Z,5.3
2018-04-01T12:54:24.017Z,6.6
2018-04-01T12:57:24.054Z,3.7
2018-04-01T13:00:24.050Z,4.9
2018-04-01T13:03:23.999Z,7.7
2018-04-01T13:06:23.988Z,5.3
2018-04-01T13:09:24.029Z,2.3
2018-04-01T13:12:24.004Z,3.2
2018-04-01T13:15:24.141Z,2.8
2018-04-01T13:18:24.027Z,4
2018-04-01T13:21:23.996Z,1.3
2018-04-01T13:24:23.999Z,1.9
2018-04-01T13:27:24.024Z,1.9
2018-04-01T13:30:24.009Z,2.2
2018-04-01T13:33:24.026Z,2
2018-04-01T13:36:24.027Z,3.5
2018-04-01T13:39:24.013Z,2.2
2018-04-01T13:42:24.006Z,1.6
2018-04-01T13:45:23.970Z,1.8
2018-04-01T13:48:24.016Z,3
2018-04-01T13:51:24.028Z,2.5
2018-04-01T13:54:24.007Z,1.8
2018-04-01T13:57:24.001Z,2
2018-04-01T14:00:24.096Z,1.4
2018-04-01T14:03:23.978Z,3.5
2018-04-01T14:06:24.009Z,1.5
2018-04-01T14:09:24.016Z,2.7
2018-04-01T14:12:24.024Z,1.3
2018-04-01T14:15:24.006Z,1.5
2018-04-01T14:18:23.994Z,2.6
2018-04-01T14:21:24.013Z,2.4
2018-04-01T14:24:24.008Z,1.2
2018-04-01T14:27:23.989Z,1.4
2018-04-01T14:30:24.001Z,2.4
2018-04-01T14:33:23.971Z,2.1
2018-04-01T14:36:24.012Z,2.9
2018-04-01T14:39:24.001Z,5
2018-04-01T14:42:24.004Z,3.7
2018-04-01T14:45:24.002Z,2.9
2018-04-01T14:48:24.620Z,4.5
2018-04-01T14:51:23.983Z,7.8
2018-04-01T14:54:24.011Z,5.4
2018-04-01T14:57:23.994Z,5.7
2018-04-01T15:00:24.045Z,7.6
2018-04-01T15:03:23.994Z,4.7
2018-04-01T15:06:23.941Z,4.9
2018-04-01T15:09:24.013Z,3.9
2018-04-01T15:12:23.982Z,2.3
2018-04-01T15:15:24.001Z,3.6
2018-04-01T15:18:24.089Z,3.5
2018-04-01T15:21:24.788Z,1.9
2018-04-01T15:24:24.642Z,3.3
2018-04-01T15:27:23.982Z,2.5
2018-04-01T15:30:24.009Z,1.5
2018-04-01T15:33:23.985Z,2.6
2018-04-01T15:36:23.953Z,5.1
2018-04-01T15:39:23.951Z,3.4
2018-04-01T15:42:23.961Z,3.3
2018-04-01T15:45:24.028Z,6.2
2018-04-01T15:48:24.071Z,1.7
2018-04-01T15:51:23.960Z,3.3
2018-04-01T15:54:23.965Z,3
2018-04-01T15:57:24.467Z,3.3
2018-04-01T16:00:24.115Z,4.6
2018-04-01T16:03:24.003Z,3.9
2018-04-01T16:06:23.981Z,3
2018-04-01T16:09:23.962Z,1.5
2018-04-01T16:12:23.959Z,3.4
2018-04-01T16:15:23.975Z,2.9
2018-04-01T16:18:24.363Z,5.5
2018-04-01T16:21:23.965Z,3.8
2018-04-01T16:24:23.975Z,2.6
2018-04-01T16:27:24.006Z,5.1
2018-04-01T16:30:23.962Z,5.9
2018-04-01T16:33:24.040Z,5.6
2018-04-01T16:36:23.965Z,3.5
2018-04-01T16:39:23.987Z,4.1
2018-04-01T16:42:24.016Z,5.2
2018-04-01T16:45:23.994Z,5.5
2018-04-01T16:48:23.966Z,4.2
2018-04-01T16:51:23.955Z,2.7
2018-04-01T16:54:23.968Z,2.9
2018-04-01T16:57:23.984Z,1.6
2018-04-01T17:00:23.992Z,2.3
2018-04-01T17:03:23.976Z,3.2
2018-04-01T17:06:24.105Z,5.3
2018-04-01T17:09:25.125Z,2.7
2018-04-01T17:12:23.986Z,2.9
2018-04-01T17:15:23.990Z,2.6
2018-04-01T17:18:23.941Z,3.3
2018-04-01T17:21:24.392Z,3
2018-04-01T17:24:23.918Z,2.3
2018-04-01T17:27:23.961Z,2
2018-04-01T17:30:23.893Z,5.8
2018-04-01T17:33:23.937Z,2.3
2018-04-01T17:36:23.910Z,3.1
2018-04-01T17:39:23.944Z,1.9
2018-04-01T17:42:23.909Z,3.2
2018-04-01T17:45:23.935Z,4.4
2018-04-01T17:48:23.973Z,2
2018-04-01T17:51:23.968Z,2.8
2018-04-01T17:54:23.918Z,2.5
2018-04-01T17:57:23.938Z,2.6
2018-04-01T18:00:23.925Z,2
2018-04-01T18:03:23.906Z,1.9
2018-04-01T18:06:23.922Z,1.3
2018-04-01T18:09:23.945Z,3.3
2018-04-01T18:12:23.907Z,2.1
2018-04-01T18:15:23.975Z,3.2
2018-04-01T18:18:23.920Z,2.1
2018-04-01T18:21:23.915Z,1.4
2018-04-01T18:24:23.997Z,2.3
2018-04-01T18:27:23.944Z,1.7
2018-04-01T18:30:23.980Z,1.2
2018-04-01T18:33:23.968Z,1.4
2018-04-01T18:36:23.946Z,1.6
2018-04-01T18:39:23.933Z,3.1
2018-04-01T18:42:24.463Z,1.7
2018-04-01T18:45:23.927Z,1.6
2018-04-01T18:48:23.928Z,7.1
2018-04-01T18:51:23.881Z,2.6
2018-04-01T18:54:23.923Z,2
2018-04-01T18:57:23.896Z,1.9
2018-04-01T19:00:23.888Z,2.7
2018-04-01T19:03:23.904Z,1.8
2018-04-01T19:06:23.910Z,1.7
2018-04-01T19:09:23.896Z,1.9
2018-04-01T19:12:23.951Z,1.9
2018-04-01T19:15:23.955Z,1.8
2018-04-01T19:18:23.929Z,2.2
2018-04-01T19:21:23.903Z,2.4
2018-04-01T19:24:23.949Z,2.1
2018-04-01T19:27:23.897Z,1.8
2018-04-01T19:30:23.867Z,2.1
2018-04-01T19:33:24.059Z,1.9
2018-04-01T19:36:23.973Z,1.8
2018-04-01T19:39:23.919Z,2.2
2018-04-01T19:42:23.899Z,4.8
2018-04-01T19:45:23.883Z,4.4
2018-04-01T19:48:23.871Z,2.7
2018-04-01T19:51:23.968Z,4.9
2018-04-01T19:54:23.922Z,3.5
2018-04-01T19:57:23.878Z,4.6
2018-04-01T20:00:23.890Z,1.8
2018-04-01T20:03:24.063Z,2.1
2018-04-01T20:06:23.897Z,3.7
2018-04-01T20:09:23.891Z,4.6
2018-04-01T20:12:23.906Z,3.4
2018-04-01T20:15:23.890Z,3.9
2018-04-01T20:18:23.874Z,4
2018-04-01T20:21:23.902Z,6.2
2018-04-01T20:24:23.886Z,4.2
2018-04-01T20:27:24.219Z,4
2018-04-01T20:30:23.960Z,2.5
2018-04-01T20:33:26.998Z,2.8
2018-04-01T20:36:23.901Z,4.8
2018-04-01T20:39:23.902Z,3.3
2018-04-01T20:42:26.054Z,2.7
2018-04-01T20:45:23.908Z,2.7
2018-04-01T20:48:23.868Z,3.1
2018-04-01T20:51:23.854Z,2.2
2018-04-01T20:54:23.873Z,3.6
2018-04-01T20:57:23.853Z,2.7
2018-04-01T21:00:23.890Z,2.6
2018-04-01T21:03:23.880Z,3
2018-04-01T21:06:23.878Z,2.5
2018-04-01T21:09:24.063Z,3
2018-04-01T21:12:23.895Z,2.6
2018-04-01T21:15:23.922Z,2.7
2018-04-01T21:18:23.856Z,1.9
2018-04-01T21:21:23.864Z,2.6
2018-04-01T21:24:24.100Z,1.9
2018-04-01T21:27:23.884Z,1.8
2018-04-01T21:30:23.878Z,2.4
2018-04-01T21:33:23.864Z,2.1
2018-04-01T21:36:23.862Z,1.7
2018-04-01T21:39:23.895Z,2.1
2018-04-01T21:42:23.910Z,1.8
2018-04-01T21:45:23.864Z,1.7
2018-04-01T21:48:23.849Z,2.8
2018-04-01T21:51:23.865Z,2.1
2018-04-01T21:54:23.890Z,2
2018-04-01T21:57:24.479Z,2.1
2018-04-01T22:00:23.854Z,2
2018-04-01T22:03:23.973Z,3.2
2018-04-01T22:06:23.981Z,1.9
2018-04-01T22:09:23.877Z,2.3
2018-04-01T22:12:23.860Z,1.7
2018-04-01T22:15:23.839Z,2.2
2018-04-01T22:18:23.895Z,1.7
2018-04-01T22:21:24.360Z,1.7
2018-04-01T22:24:23.849Z,2.5
2018-04-01T22:27:23.840Z,1.8
2018-04-01T22:30:23.830Z,2.1
2018-04-01T22:33:23.893Z,2.7
2018-04-01T22:36:23.833Z,1.8
2018-04-01T22:39:23.912Z,2.6
2018-04-01T22:42:23.833Z,1.9
2018-04-01T22:45:23.847Z,1.7
2018-04-01T22:48:23.857Z,2
2018-04-01T22:51:23.837Z,1.7
2018-04-01T22:54:23.841Z,1.9
2018-04-01T22:57:23.822Z,2.1
2018-04-01T23:00:23.835Z,2
2018-04-01T23:03:23.833Z,1.8
2018-04-01T23:14:02.447Z,1.7
2018-04-01T23:17:02.438Z,3.2
2018-04-01T23:20:02.441Z,2
2018-04-01T23:23:02.425Z,1.8
2018-04-01T23:26:02.471Z,2
2018-04-01T23:29:02.412Z,2.2
2018-04-01T23:32:02.431Z,1.8
2018-04-01T23:35:02.563Z,2.7
2018-04-01T23:38:02.506Z,2.1
2018-04-01T23:41:02.452Z,1.9
2018-04-01T23:44:02.503Z,2.5
2018-04-01T23:47:02.494Z,1.9
2018-04-01T23:50:02.486Z,1.9
2018-04-01T23:53:02.468Z,1.8
2018-04-01T23:56:02.472Z,2
2018-04-01T23:59:02.857Z,2.1
